createdAt,value
2023-03-06T00:00:17.135Z,63.94
2023-03-06T00:03:01.899Z,63.86
2023-03-06T00:05:46.944Z,64.03
2023-03-06T00:08:31.703Z,65.66
2023-03-06T00:11:16.567Z,64.55
2023-03-06T00:14:01.424Z,64.90
2023-03-06T00:16:46.374Z,64.42
2023-03-06T00:19:31.300Z,64.19
2023-03-06T00:22:16.089Z,63.69
2023-03-06T00:25:01.090Z,65.30
2023-03-06T00:27:45.995Z,65.36
2023-03-06T00:30:31.478Z,64.95
2023-03-06T00:33:16.390Z,65.84
2023-03-06T00:36:01.376Z,64.27
2023-03-06T00:38:46.261Z,64.35
2023-03-06T00:41:31.220Z,66.08
2023-03-06T00:44:16.075Z,65.99
2023-03-06T00:47:00.844Z,65.74
2023-03-06T00:49:45.904Z,67.58
2023-03-06T00:52:30.749Z,67.00
2023-03-06T00:55:15.773Z,67.23
2023-03-06T00:58:00.591Z,67.00
2023-03-06T01:00:45.506Z,65.77
2023-03-06T01:03:30.780Z,65.57
2023-03-06T01:06:15.541Z,67.61
2023-03-06T01:09:00.590Z,66.76
2023-03-06T01:11:45.511Z,65.67
2023-03-06T01:14:30.536Z,65.63
2023-03-06T01:17:15.317Z,66.55
2023-03-06T01:20:00.307Z,67.05
2023-03-06T01:22:45.169Z,66.54
2023-03-06T01:25:30.180Z,65.83
2023-03-06T01:28:15.043Z,66.35
2023-03-06T01:30:59.844Z,67.19
2023-03-06T01:33:44.705Z,66.46
2023-03-06T01:36:29.563Z,68.05
2023-03-06T01:39:14.339Z,66.63
2023-03-06T01:41:59.109Z,66.92
2023-03-06T01:44:44.151Z,66.98
2023-03-06T01:47:29.079Z,67.21
2023-03-06T01:50:14.176Z,66.08
2023-03-06T01:52:59.198Z,67.01
2023-03-06T01:55:44.023Z,65.77
2023-03-06T01:58:28.921Z,67.85
2023-03-06T02:01:13.862Z,67.93
2023-03-06T02:03:58.980Z,68.23
2023-03-06T02:06:43.831Z,68.44
2023-03-06T02:09:28.597Z,68.58
2023-03-06T02:12:13.488Z,67.86
2023-03-06T02:14:58.546Z,67.73
2023-03-06T02:17:43.372Z,67.70
2023-03-06T02:20:28.131Z,68.25
2023-03-06T02:23:13.051Z,67.62
2023-03-06T02:25:57.942Z,67.66
2023-03-06T02:28:42.954Z,66.34
2023-03-06T02:31:27.746Z,65.88
2023-03-06T02:34:12.704Z,66.74
2023-03-06T02:36:57.533Z,66.28
2023-03-06T02:39:42.505Z,67.84
2023-03-06T02:42:27.475Z,66.02
2023-03-06T02:45:12.452Z,66.14
2023-03-06T02:47:57.346Z,65.06
2023-03-06T02:50:42.403Z,65.87
2023-03-06T02:53:27.428Z,66.15
2023-03-06T02:56:12.165Z,66.36
2023-03-06T02:58:57.017Z,66.39
2023-03-06T03:01:41.914Z,66.51
2023-03-06T03:04:26.987Z,66.75
2023-03-06T03:07:11.943Z,66.62
2023-03-06T03:09:56.730Z,68.38
2023-03-06T03:12:41.860Z,68.41
2023-03-06T03:15:26.638Z,66.63
2023-03-06T03:18:11.580Z,65.64
2023-03-06T03:20:56.344Z,65.66
2023-03-06T03:23:41.201Z,68.09
2023-03-06T03:26:25.949Z,67.43
2023-03-06T03:29:10.923Z,66.39
2023-03-06T03:31:55.948Z,68.40
2023-03-06T03:34:40.829Z,66.11
2023-03-06T03:37:25.824Z,67.09
2023-03-06T03:40:10.699Z,67.40
2023-03-06T03:42:55.518Z,68.85
2023-03-06T03:45:40.430Z,67.19
2023-03-06T03:48:25.501Z,67.56
2023-03-06T03:51:10.312Z,65.52
2023-03-06T03:53:55.299Z,67.07
2023-03-06T03:56:40.182Z,66.66
2023-03-06T03:59:24.910Z,67.94
2023-03-06T04:02:09.941Z,67.53
2023-03-06T04:04:54.799Z,66.98
2023-03-06T04:07:39.682Z,66.29
2023-03-06T04:10:24.524Z,67.57
2023-03-06T04:13:10.195Z,66.09
2023-03-06T04:15:55.316Z,67.53
2023-03-06T04:18:40.067Z,66.43
2023-03-06T04:21:25.069Z,67.80
2023-03-06T04:24:09.856Z,67.10
2023-03-06T04:26:54.772Z,68.15
2023-03-06T04:29:39.674Z,67.16
2023-03-06T04:32:24.684Z,65.78
2023-03-06T04:35:09.433Z,67.18
2023-03-06T04:37:54.259Z,67.09
2023-03-06T04:40:39.047Z,67.81
2023-03-06T04:43:23.973Z,68.73
2023-03-06T04:46:08.988Z,68.06
2023-03-06T04:48:53.836Z,68.62
2023-03-06T04:51:38.659Z,66.91
2023-03-06T04:54:23.549Z,66.53
2023-03-06T04:57:08.579Z,68.08
2023-03-06T04:59:53.376Z,67.27
2023-03-06T05:02:38.342Z,66.72
2023-03-06T05:05:23.171Z,67.12
2023-03-06T05:08:08.029Z,68.38
2023-03-06T05:10:52.960Z,68.04
2023-03-06T05:13:38.005Z,68.65
2023-03-06T05:16:22.828Z,66.98
2023-03-06T05:19:07.609Z,65.97
2023-03-06T05:21:52.672Z,67.68
2023-03-06T05:24:37.428Z,67.44
2023-03-06T05:27:22.199Z,68.39
2023-03-06T05:30:07.084Z,65.85
2023-03-06T05:32:52.134Z,66.29
2023-03-06T05:35:36.975Z,68.21
2023-03-06T05:38:21.786Z,66.96
2023-03-06T05:41:06.741Z,67.03
2023-03-06T05:43:51.748Z,68.70
2023-03-06T05:46:36.827Z,66.33
2023-03-06T05:49:21.564Z,67.18
2023-03-06T05:52:06.523Z,66.42
2023-03-06T05:54:51.367Z,66.65
2023-03-06T05:57:36.273Z,65.60
2023-03-06T06:00:21.254Z,67.68
2023-03-06T06:03:06.148Z,68.93
2023-03-06T06:05:51.015Z,69.30
2023-03-06T06:08:35.845Z,66.70
2023-03-06T06:11:20.908Z,66.14
2023-03-06T06:14:05.753Z,66.91
2023-03-06T06:16:50.828Z,67.05
2023-03-06T06:19:35.681Z,67.87
2023-03-06T06:22:20.581Z,68.28
2023-03-06T06:25:05.392Z,66.73
2023-03-06T06:27:50.210Z,66.90
2023-03-06T06:30:35.188Z,68.64
2023-03-06T06:33:20.091Z,68.85
2023-03-06T06:36:05.086Z,67.84
2023-03-06T06:38:49.851Z,68.82
2023-03-06T06:44:40.045Z,68.78
2023-03-06T06:47:25.870Z,66.49
2023-03-06T06:50:10.826Z,65.57
2023-03-06T06:52:55.570Z,66.47
2023-03-06T06:55:40.596Z,64.93
2023-03-06T06:58:25.355Z,65.65
2023-03-06T07:01:10.270Z,65.57
2023-03-06T07:03:55.267Z,65.01
2023-03-06T07:06:39.977Z,64.72
2023-03-06T07:09:24.919Z,64.36
2023-03-06T07:12:09.706Z,64.74
2023-03-06T07:14:54.749Z,64.41
2023-03-06T07:17:39.608Z,63.07
2023-03-06T07:20:24.402Z,62.77
2023-03-06T07:23:09.278Z,62.63
2023-03-06T07:25:54.107Z,61.13
2023-03-06T07:28:51.634Z,61.93
2023-03-06T07:31:37.151Z,62.17
2023-03-06T07:34:22.029Z,62.23
2023-03-06T07:37:07.015Z,62.71
2023-03-06T07:39:52.072Z,62.92
2023-03-06T07:42:36.906Z,62.96
2023-03-06T07:45:21.728Z,61.64
2023-03-06T07:48:06.608Z,62.22
2023-03-06T07:50:51.287Z,61.31
2023-03-06T07:53:36.221Z,61.56
2023-03-06T07:56:21.346Z,60.59
2023-03-06T07:59:06.292Z,59.60
2023-03-06T08:01:51.184Z,61.70
2023-03-06T08:04:36.263Z,60.95
2023-03-06T08:07:21.065Z,59.63
2023-03-06T08:10:05.850Z,60.01
2023-03-06T08:12:50.597Z,59.65
2023-03-06T08:15:35.517Z,59.43
2023-03-06T08:18:20.308Z,59.67
2023-03-06T08:21:05.236Z,60.26
2023-03-06T08:23:50.143Z,59.73
2023-03-06T08:26:34.956Z,59.10
2023-03-06T08:29:20.090Z,59.12
2023-03-06T08:32:04.835Z,59.08
2023-03-06T08:34:49.696Z,60.19
2023-03-06T08:37:34.635Z,59.70
2023-03-06T08:40:19.502Z,59.97
2023-03-06T08:43:04.333Z,58.95
2023-03-06T08:45:49.376Z,58.68
2023-03-06T08:48:34.721Z,58.03
2023-03-06T08:51:19.562Z,57.47
2023-03-06T08:54:04.557Z,57.94
2023-03-06T08:56:49.565Z,57.16
2023-03-06T08:59:34.562Z,57.55
2023-03-06T09:02:19.446Z,57.16
2023-03-06T09:05:04.340Z,58.73
2023-03-06T09:07:49.170Z,59.09
2023-03-06T09:10:33.965Z,57.81
2023-03-06T09:13:18.914Z,56.40
2023-03-06T09:16:03.657Z,56.28
2023-03-06T09:18:48.631Z,57.11
2023-03-06T09:21:33.462Z,56.98
2023-03-06T09:24:18.358Z,56.79
2023-03-06T09:27:03.226Z,56.11
2023-03-06T09:29:48.144Z,55.65
2023-03-06T09:32:33.083Z,55.81
2023-03-06T09:35:18.429Z,56.64
2023-03-06T09:38:03.304Z,55.41
2023-03-06T09:40:48.039Z,56.06
2023-03-06T09:43:32.953Z,56.18
2023-03-06T09:46:17.778Z,56.24
2023-03-06T09:49:02.556Z,54.54
2023-03-06T09:51:47.449Z,55.49
2023-03-06T09:54:32.257Z,53.11
2023-03-06T09:57:16.995Z,53.82
2023-03-06T10:00:04.325Z,52.23
2023-03-06T10:02:50.036Z,52.98
2023-03-06T10:05:35.327Z,52.44
2023-03-06T10:08:20.115Z,53.47
2023-03-06T10:11:04.922Z,52.25
2023-03-06T10:13:49.735Z,50.92
2023-03-06T10:16:34.516Z,51.31
2023-03-06T10:19:19.445Z,52.50
2023-03-06T10:22:04.348Z,51.25
2023-03-06T10:24:49.168Z,49.59
2023-03-06T10:27:34.171Z,48.56
2023-03-06T10:30:18.930Z,48.04
2023-03-06T10:33:03.872Z,48.71
2023-03-06T10:35:49.148Z,49.45
2023-03-06T10:38:34.100Z,48.29
2023-03-06T10:41:18.933Z,50.12
2023-03-06T10:44:03.713Z,49.65
2023-03-06T10:46:48.839Z,49.21
2023-03-06T10:49:34.080Z,48.52
2023-03-06T10:52:19.166Z,48.13
2023-03-06T10:55:04.081Z,46.74
2023-03-06T10:57:49.045Z,46.35
2023-03-06T11:00:34.045Z,46.38
2023-03-06T11:03:19.023Z,45.16
2023-03-06T11:06:04.032Z,45.38
2023-03-06T11:08:48.898Z,43.40
2023-03-06T11:11:37.766Z,43.27
2023-03-06T11:14:23.304Z,43.48
2023-03-06T11:17:08.305Z,43.73
2023-03-06T11:19:53.294Z,43.12
2023-03-06T11:22:38.114Z,43.30
2023-03-06T11:25:22.989Z,41.22
2023-03-06T11:28:07.859Z,43.46
2023-03-06T11:30:52.925Z,42.19
2023-03-06T11:33:37.933Z,43.05
2023-03-06T11:36:22.788Z,42.82
2023-03-06T11:39:07.693Z,42.78
2023-03-06T11:41:52.586Z,42.15
2023-03-06T11:44:37.656Z,39.32
2023-03-06T11:47:22.470Z,40.40
2023-03-06T11:50:07.491Z,38.55
2023-03-06T11:52:52.267Z,39.38
2023-03-06T11:55:37.254Z,37.72
2023-03-06T11:58:22.209Z,36.78
2023-03-06T12:01:07.157Z,37.25
2023-03-06T12:03:52.224Z,37.05
2023-03-06T12:06:37.130Z,37.92
2023-03-06T12:09:21.981Z,38.02
2023-03-06T12:12:06.832Z,36.23
2023-03-06T12:14:51.824Z,36.21
2023-03-06T12:17:36.747Z,37.55
2023-03-06T12:20:21.787Z,36.78
2023-03-06T12:23:14.905Z,36.11
2023-03-06T12:26:01.072Z,34.31
2023-03-06T12:28:46.554Z,35.45
2023-03-06T12:31:32.018Z,33.11
2023-03-06T12:34:16.779Z,33.73
2023-03-06T12:37:01.856Z,32.59
2023-03-06T12:39:46.771Z,32.73
2023-03-06T12:42:31.661Z,33.11
2023-03-06T12:45:16.622Z,30.94
2023-03-06T12:48:01.599Z,32.99
2023-03-06T12:50:46.441Z,32.12
2023-03-06T12:53:31.317Z,31.36
2023-03-06T12:56:16.237Z,30.14
2023-03-06T12:59:01.156Z,30.20
2023-03-06T13:01:46.205Z,30.28
2023-03-06T13:04:31.034Z,29.94
2023-03-06T13:07:16.000Z,29.07
2023-03-06T13:10:01.005Z,30.43
2023-03-06T13:12:45.876Z,29.60
2023-03-06T13:15:30.740Z,30.18
2023-03-06T13:18:15.608Z,29.56
2023-03-06T13:21:00.678Z,29.52
2023-03-06T13:23:45.621Z,28.32
2023-03-06T13:26:30.478Z,27.87
2023-03-06T13:29:15.442Z,27.43
2023-03-06T13:32:00.485Z,28.91
2023-03-06T13:34:45.725Z,27.80
2023-03-06T13:37:30.508Z,27.21
2023-03-06T13:40:15.388Z,26.86
2023-03-06T13:43:00.096Z,27.44
2023-03-06T13:45:45.133Z,27.58
2023-03-06T13:48:43.823Z,28.01
2023-03-06T13:51:29.552Z,26.94
2023-03-06T13:54:14.327Z,29.06
2023-03-06T13:56:59.247Z,28.31
2023-03-06T13:59:44.131Z,25.54
2023-03-06T14:02:29.089Z,25.58
2023-03-06T14:05:13.941Z,25.23
2023-03-06T14:07:58.784Z,23.94
2023-03-06T14:10:43.792Z,26.52
2023-03-06T14:13:35.044Z,26.30
2023-03-06T14:16:23.244Z,28.16
2023-03-06T14:19:08.172Z,29.09
2023-03-06T14:21:53.048Z,26.59
2023-03-06T14:24:37.882Z,26.47
2023-03-06T14:27:22.866Z,25.81
2023-03-06T14:30:07.908Z,25.09
2023-03-06T14:32:52.762Z,25.82
2023-03-06T14:35:37.618Z,26.06
2023-03-06T14:38:22.591Z,25.89
2023-03-06T14:41:07.459Z,25.88
2023-03-06T14:43:52.419Z,25.89
2023-03-06T14:46:37.446Z,25.13
2023-03-06T14:49:22.243Z,23.03
2023-03-06T14:52:07.116Z,22.34
2023-03-06T14:54:51.832Z,21.95
2023-03-06T14:57:36.932Z,21.93
2023-03-06T15:00:21.750Z,21.21
2023-03-06T15:03:06.731Z,20.91
2023-03-06T15:05:51.980Z,21.06
2023-03-06T15:08:36.905Z,21.08
2023-03-06T15:11:21.773Z,22.03
2023-03-06T15:14:06.698Z,22.30
2023-03-06T15:16:51.583Z,20.61
2023-03-06T15:19:36.397Z,21.27
2023-03-06T15:22:21.677Z,23.11
2023-03-06T15:25:06.812Z,23.60
2023-03-06T15:27:51.608Z,25.71
2023-03-06T15:30:36.397Z,28.14
2023-03-06T15:33:21.252Z,27.91
2023-03-06T15:36:06.087Z,30.43
2023-03-06T15:38:50.861Z,32.97
2023-03-06T15:41:35.709Z,34.96
2023-03-06T15:44:20.549Z,35.37
2023-03-06T15:47:09.395Z,34.14
2023-03-06T15:49:54.555Z,32.72
2023-03-06T15:52:39.378Z,34.28
2023-03-06T15:55:24.370Z,34.88
2023-03-06T15:58:09.229Z,33.89
2023-03-06T16:00:54.110Z,33.22
2023-03-06T16:03:38.908Z,33.30
2023-03-06T16:06:23.841Z,32.98
2023-03-06T16:09:08.812Z,33.85
2023-03-06T16:11:53.788Z,32.66
2023-03-06T16:14:38.820Z,32.66
2023-03-06T16:17:23.531Z,32.24
2023-03-06T16:20:08.504Z,33.32
2023-03-06T16:22:53.408Z,37.37
2023-03-06T16:25:38.351Z,35.15
2023-03-06T16:28:23.280Z,35.40
2023-03-06T16:31:08.318Z,33.65
2023-03-06T16:33:53.109Z,33.97
2023-03-06T16:36:38.027Z,35.21
2023-03-06T16:39:23.034Z,35.41
2023-03-06T16:42:07.839Z,34.99
2023-03-06T16:44:52.962Z,35.22
2023-03-06T16:47:37.695Z,36.03
2023-03-06T16:50:22.774Z,35.52
2023-03-06T16:53:07.524Z,35.43
2023-03-06T16:55:52.564Z,35.14
2023-03-06T16:58:37.338Z,35.28
2023-03-06T17:01:22.315Z,35.36
2023-03-06T17:04:07.189Z,34.86
2023-03-06T17:06:52.036Z,35.67
2023-03-06T17:09:36.960Z,35.09
2023-03-06T17:12:21.721Z,35.27
2023-03-06T17:15:06.746Z,36.87
2023-03-06T17:17:51.695Z,35.35
2023-03-06T17:20:36.515Z,36.15
2023-03-06T17:23:21.337Z,37.43
2023-03-06T17:26:06.317Z,36.70
2023-03-06T17:28:51.265Z,36.61
2023-03-06T17:31:36.021Z,37.25
2023-03-06T17:34:23.042Z,38.23
2023-03-06T17:37:09.343Z,38.32
2023-03-06T17:39:54.188Z,37.88
2023-03-06T17:42:39.064Z,37.33
2023-03-06T17:45:24.155Z,37.95
2023-03-06T17:48:09.262Z,38.17
2023-03-06T17:50:54.100Z,38.41
2023-03-06T17:53:39.115Z,38.47
2023-03-06T17:56:24.041Z,37.68
2023-03-06T17:59:08.875Z,38.71
2023-03-06T18:01:53.875Z,39.44
2023-03-06T18:04:38.795Z,38.66
2023-03-06T18:07:23.765Z,38.61
2023-03-06T18:10:08.662Z,39.97
2023-03-06T18:12:53.761Z,37.92
2023-03-06T18:15:38.646Z,39.23
2023-03-06T18:18:23.518Z,38.27
2023-03-06T18:21:08.321Z,38.42
2023-03-06T18:23:53.132Z,39.04
2023-03-06T18:26:38.019Z,38.63
2023-03-06T18:29:22.980Z,37.89
2023-03-06T18:32:07.809Z,37.37
2023-03-06T18:34:52.711Z,36.13
2023-03-06T18:37:37.518Z,36.39
2023-03-06T18:40:24.781Z,36.85
2023-03-06T18:43:09.930Z,37.29
2023-03-06T18:45:54.945Z,36.67
2023-03-06T18:48:40.277Z,37.01
2023-03-06T18:51:25.254Z,37.14
2023-03-06T18:54:10.068Z,36.66
2023-03-06T18:56:55.055Z,37.99
2023-03-06T18:59:39.918Z,37.66
2023-03-06T19:02:24.763Z,37.80
2023-03-06T19:05:09.756Z,38.08
2023-03-06T19:07:54.641Z,39.53
2023-03-06T19:10:39.594Z,40.20
2023-03-06T19:13:24.492Z,40.64
2023-03-06T19:16:09.347Z,39.39
2023-03-06T19:18:54.118Z,39.14
2023-03-06T19:21:39.063Z,40.18
2023-03-06T19:24:23.960Z,40.83
2023-03-06T19:27:08.893Z,40.51
2023-03-06T19:29:53.812Z,40.34
2023-03-06T19:32:38.806Z,41.58
2023-03-06T19:35:24.080Z,41.00
2023-03-06T19:38:08.990Z,42.29
2023-03-06T19:40:53.966Z,42.27
2023-03-06T19:43:38.887Z,43.31
2023-03-06T19:46:23.819Z,43.59
2023-03-06T19:49:08.726Z,44.38
2023-03-06T19:51:53.683Z,44.73
2023-03-06T19:54:38.562Z,45.00
2023-03-06T19:57:23.568Z,45.11
2023-03-06T20:00:08.462Z,45.20
2023-03-06T20:02:53.165Z,44.71
2023-03-06T20:05:38.300Z,45.58
2023-03-06T20:08:23.371Z,44.73
2023-03-06T20:11:08.317Z,45.77
2023-03-06T20:13:53.067Z,45.18
2023-03-06T20:16:37.936Z,44.66
2023-03-06T20:19:22.785Z,44.16
2023-03-06T20:22:07.879Z,44.09
2023-03-06T20:24:52.818Z,45.65
2023-03-06T20:27:37.659Z,44.40
2023-03-06T20:30:22.659Z,43.95
2023-03-06T20:33:07.578Z,44.84
2023-03-06T20:35:52.551Z,46.15
2023-03-06T20:38:37.500Z,46.21
2023-03-06T20:41:22.216Z,46.47
2023-03-06T20:44:07.113Z,46.64
2023-03-06T20:46:51.942Z,46.31
2023-03-06T20:49:36.850Z,46.21
2023-03-06T20:52:21.803Z,44.79
2023-03-06T20:55:06.738Z,45.29
2023-03-06T20:57:51.707Z,45.67
2023-03-06T21:00:36.737Z,44.20
2023-03-06T21:03:21.661Z,45.32
2023-03-06T21:06:06.731Z,45.33
2023-03-06T21:08:51.478Z,45.23
2023-03-06T21:11:36.444Z,45.52
2023-03-06T21:14:21.425Z,44.66
2023-03-06T21:17:06.193Z,45.35
2023-03-06T21:19:51.243Z,46.29
2023-03-06T21:22:36.087Z,44.45
2023-03-06T21:25:21.055Z,44.41
2023-03-06T21:28:05.928Z,45.60
2023-03-06T21:30:50.974Z,43.92
2023-03-06T21:33:35.784Z,45.62
2023-03-06T21:36:20.601Z,46.10
2023-03-06T21:39:05.403Z,45.29
2023-03-06T21:41:50.283Z,45.73
2023-03-06T21:44:35.444Z,45.84
2023-03-06T21:47:20.524Z,46.05
2023-03-06T21:50:05.376Z,46.27
2023-03-06T21:52:50.123Z,46.34
2023-03-06T21:55:35.041Z,45.59
2023-03-06T21:58:19.902Z,46.43
2023-03-06T22:01:04.946Z,46.01
2023-03-06T22:03:50.009Z,46.01
2023-03-06T22:06:34.903Z,46.45
2023-03-06T22:09:19.868Z,45.81
2023-03-06T22:12:04.692Z,45.95
2023-03-06T22:14:49.520Z,47.07
2023-03-06T22:17:34.401Z,46.81
2023-03-06T22:20:19.192Z,48.26
2023-03-06T22:23:04.047Z,47.76
2023-03-06T22:25:48.897Z,48.43
2023-03-06T22:28:33.813Z,47.42
2023-03-06T22:31:18.720Z,47.24
2023-03-06T22:34:03.562Z,48.24
2023-03-06T22:36:48.335Z,48.62
2023-03-06T22:39:33.259Z,48.84
2023-03-06T22:42:18.109Z,49.07
2023-03-06T22:45:03.051Z,47.54
2023-03-06T22:47:47.779Z,47.75
2023-03-06T22:50:32.715Z,48.68
2023-03-06T22:53:17.637Z,49.68
2023-03-06T22:56:02.601Z,48.84
2023-03-06T22:58:47.558Z,47.65
2023-03-06T23:01:32.481Z,47.46
2023-03-06T23:04:17.540Z,46.37
2023-03-06T23:07:02.779Z,45.91
2023-03-06T23:09:47.720Z,46.68
2023-03-06T23:12:32.632Z,47.07
2023-03-06T23:15:17.696Z,47.75
2023-03-06T23:18:02.461Z,47.01
2023-03-06T23:20:47.423Z,46.56
2023-03-06T23:23:32.530Z,47.97
2023-03-06T23:26:17.323Z,45.76
2023-03-06T23:29:02.207Z,45.41
2023-03-06T23:31:47.059Z,46.07
2023-03-06T23:34:32.000Z,45.16
2023-03-06T23:37:16.928Z,44.97
2023-03-06T23:40:01.878Z,45.45
2023-03-06T23:42:46.773Z,47.36
2023-03-06T23:45:31.753Z,48.97
2023-03-06T23:48:16.700Z,50.22
2023-03-06T23:51:01.604Z,49.07
2023-03-06T23:53:46.483Z,47.88
2023-03-06T23:56:31.292Z,47.20
2023-03-06T23:59:16.247Z,48.05
